Accedi per prenotare

Caricamento...

Situazione Metar e Taf aeroporto Pisa - Effemeridi Aeroporto Lucca

[Source: ADDS]
METAR
LIRP 282345Z 12001KT CAVOK 07/07 Q1015 NOSIG =
LIRP 282300Z 2900/2924 29005KT 9999 SCT060 PROB30 TEMPO 2902/2906 4000 BR BECMG 2918/2921 BKN060
TAF
LIRP 282300Z 2900/2924 29005KT 9999 SCT060 PROB30 TEMPO 2902/2906 4000 BR BECMG 2918/2921 BKN060 =
SR / SS: 05:06 / 17:42 UTC (Effemeridi LIQL 2020-03-29)